Time;durP1;ratioP1;P1;durP2;ratioP2;P2;SDS_P1;SDS_P2;PMS_P1;PMS_P2;Temp;Humidity;BMP_temperature;BMP_pressure;BME280_temperature;BME280_humidity;BME280_pressure;Samples;Min_cycle;Max_cycle;Signal;HPM_P1;HPM_P2
2022/01/27 00:05:57;;;;;;;64.65;23.75;;;2.90;99.90;;;;;;6140169;23;20005;-88
2022/01/27 00:08:38;;;;;;;49.78;18.58;;;2.90;99.90;;;;;;6105301;23;20017;-88
2022/01/27 00:11:11;;;;;;;63.33;23.75;;;2.90;99.90;;;;;;6093450;23;20361;-89
2022/01/27 00:13:53;;;;;;;52.70;20.25;;;2.90;99.90;;;;;;6105797;23;20029;-89
2022/01/27 00:16:23;;;;;;;27.77;10.38;;;2.90;99.90;;;;;;6129203;23;20017;-88
2022/01/27 00:18:52;;;;;;;61.60;22.45;;;2.90;99.90;;;;;;6107204;23;20100;-88
2022/01/27 00:21:28;;;;;;;40.05;16.58;;;2.90;99.90;;;;;;6054495;23;20007;-88
2022/01/27 00:23:55;;;;;;;43.75;14.85;;;2.80;99.90;;;;;;6125991;23;20020;-88
2022/01/27 00:26:24;;;;;;;53.38;18.75;;;2.90;99.90;;;;;;6112357;23;20009;-88
2022/01/27 00:29:10;;;;;;;49.63;18.58;;;2.90;99.90;;;;;;6115955;23;20013;-88
2022/01/27 00:31:39;;;;;;;62.80;25.67;;;2.90;99.90;;;;;;6105888;23;20412;-89
2022/01/27 00:34:09;;;;;;;29.50;14.73;;;2.80;99.90;;;;;;6119511;23;20442;-90
2022/01/27 00:36:41;;;;;;;34.83;17.23;;;2.90;99.90;;;;;;6154371;23;20013;-88
2022/01/27 00:39:06;;;;;;;41.03;16.83;;;2.90;99.90;;;;;;6134755;23;20087;-89
2022/01/27 00:41:33;;;;;;;40.75;16.58;;;2.80;99.90;;;;;;6116008;23;20025;-88
2022/01/27 00:44:15;;;;;;;40.15;19.00;;;2.90;99.90;;;;;;6135898;23;20009;-89
2022/01/27 00:46:49;;;;;;;38.67;13.63;;;2.80;99.90;;;;;;6141248;23;20014;-88
2022/01/27 00:49:19;;;;;;;36.63;14.88;;;2.90;99.90;;;;;;6140914;23;20013;-89
2022/01/27 00:51:51;;;;;;;67.10;25.52;;;2.90;99.90;;;;;;6129532;23;20009;-89
2022/01/27 00:54:27;;;;;;;32.85;13.55;;;2.80;99.90;;;;;;6127433;23;20015;-89
2022/01/27 01:00:00;;;;;;;44.55;20.58;;;2.90;99.90;;;;;;6091695;23;20022;-89
2022/01/27 01:05:24;;;;;;;31.95;13.35;;;3.00;99.90;;;;;;6134512;23;20009;-88
2022/01/27 01:07:56;;;;;;;41.53;17.70;;;2.90;99.90;;;;;;6154824;23;20338;-88
2022/01/27 01:15:46;;;;;;;45.25;19.27;;;2.90;99.90;;;;;;6125383;23;20072;-88
2022/01/27 01:21:42;;;;;;;32.05;12.15;;;2.90;99.90;;;;;;6108220;23;20087;-89
2022/01/27 01:29:53;;;;;;;23.33;10.32;;;2.90;99.90;;;;;;6157243;23;20125;-88
2022/01/27 01:32:30;;;;;;;34.20;14.45;;;2.90;99.90;;;;;;6130141;23;20013;-88
2022/01/27 01:34:58;;;;;;;28.65;13.27;;;2.80;99.90;;;;;;6083711;23;20013;-89
2022/01/27 01:37:37;;;;;;;41.80;19.58;;;2.90;99.90;;;;;;6094797;23;20001;-90
2022/01/27 01:40:12;;;;;;;31.50;12.95;;;2.90;99.90;;;;;;6108364;23;20008;-89
2022/01/27 01:42:48;;;;;;;42.53;16.90;;;2.90;99.90;;;;;;6085489;23;20005;-89
2022/01/27 01:45:17;;;;;;;;;;;2.90;99.90;;;;;;6105170;23;20063;-90
2022/01/27 01:47:48;;;;;;;37.90;16.48;;;2.90;99.90;;;;;;6120363;23;19905;-88
2022/01/27 01:50:22;;;;;;;42.38;15.05;;;2.80;99.90;;;;;;6123180;23;20088;-88
2022/01/27 01:52:55;;;;;;;38.08;18.65;;;2.90;99.90;;;;;;6115758;23;20512;-89
2022/01/27 01:55:20;;;;;;;39.25;18.13;;;2.70;99.90;;;;;;6155238;23;20009;-88
2022/01/27 01:57:48;;;;;;;44.50;15.02;;;2.80;99.90;;;;;;6108137;23;20569;-88
2022/01/27 02:00:28;;;;;;;28.88;10.80;;;2.80;99.90;;;;;;6166294;23;20009;-88
2022/01/27 02:02:54;;;;;;;51.33;21.65;;;2.80;99.90;;;;;;6136952;23;20462;-88
2022/01/27 02:05:30;;;;;;;39.22;15.63;;;2.90;99.90;;;;;;6123108;23;20005;-87
2022/01/27 02:09:02;;;;;;;40.25;16.85;;;2.80;99.90;;;;;;6120064;23;20454;-88
2022/01/27 02:19:46;;;;;;;53.15;21.15;;;2.80;99.90;;;;;;6128982;23;20349;-88
2022/01/27 02:22:11;;;;;;;53.92;20.90;;;2.80;99.90;;;;;;6151755;23;20770;-88
2022/01/27 02:24:39;;;;;;;38.53;18.75;;;2.80;99.90;;;;;;6112929;23;20013;-88
2022/01/27 02:27:08;;;;;;;35.42;14.68;;;2.80;99.90;;;;;;6086270;23;20013;-88
2022/01/27 02:29:36;;;;;;;34.47;15.63;;;2.70;99.90;;;;;;6107650;23;20033;-89
2022/01/27 02:32:08;;;;;;;54.42;23.85;;;2.80;99.90;;;;;;6089816;23;20005;-89
2022/01/27 02:34:46;;;;;;;36.35;14.25;;;2.80;99.90;;;;;;6146191;23;20352;-89
2022/01/27 02:37:15;;;;;;;26.75;11.70;;;2.80;99.90;;;;;;6088039;23;20005;-88
2022/01/27 02:39:40;;;;;;;45.67;23.00;;;2.70;99.90;;;;;;6085405;23;20013;-88
2022/01/27 02:42:31;;;;;;;37.85;14.77;;;2.70;99.90;;;;;;6116371;23;20007;-88
2022/01/27 02:45:11;;;;;;;40.72;16.73;;;2.80;99.90;;;;;;6153260;23;20008;-87
2022/01/27 02:47:38;;;;;;;33.97;12.85;;;2.70;99.90;;;;;;6123359;23;20017;-88
2022/01/27 02:50:09;;;;;;;35.15;13.55;;;2.70;99.90;;;;;;6076586;23;20049;-89
2022/01/27 02:52:42;;;;;;;42.65;19.48;;;2.80;99.90;;;;;;6095313;23;20020;-88
2022/01/27 02:55:11;;;;;;;12.90;6.38;;;2.90;99.90;;;;;;6075362;23;20020;-89
2022/01/27 02:57:39;;;;;;;32.25;13.95;;;2.70;99.90;;;;;;6135221;23;20461;-88
2022/01/27 03:00:14;;;;;;;35.88;15.35;;;2.80;99.90;;;;;;6137527;23;20017;-89
2022/01/27 03:02:40;;;;;;;47.42;18.15;;;2.80;99.90;;;;;;6144180;23;20006;-88
2022/01/27 03:05:06;;;;;;;34.45;15.63;;;2.70;99.90;;;;;;6127235;23;20012;-88
2022/01/27 03:07:34;;;;;;;44.95;15.13;;;2.80;99.90;;;;;;6149670;23;20072;-88
2022/01/27 03:10:00;;;;;;;34.80;14.07;;;2.80;99.90;;;;;;6132807;23;20096;-90
2022/01/27 03:12:28;;;;;;;42.92;16.23;;;2.80;99.90;;;;;;6103401;23;20430;-88
2022/01/27 03:14:58;;;;;;;44.00;19.90;;;2.80;99.90;;;;;;6152329;23;20001;-89
2022/01/27 03:17:26;;;;;;;25.08;8.93;;;2.80;99.90;;;;;;6126565;23;20036;-88
2022/01/27 03:19:52;;;;;;;41.95;16.20;;;2.90;99.90;;;;;;6152141;23;20001;-88
2022/01/27 03:22:20;;;;;;;37.88;13.30;;;2.80;99.90;;;;;;6135108;23;20012;-89
2022/01/27 03:24:48;;;;;;;42.38;15.57;;;2.90;99.90;;;;;;6103279;23;20013;-88
2022/01/27 03:27:19;;;;;;;22.80;8.38;;;2.80;99.90;;;;;;6154196;23;20012;-88
2022/01/27 03:29:45;;;;;;;33.95;14.02;;;2.90;99.90;;;;;;6129616;23;20017;-88
2022/01/27 03:32:11;;;;;;;27.75;12.18;;;2.80;99.90;;;;;;6153041;23;20005;-89
2022/01/27 03:34:36;;;;;;;31.52;13.93;;;2.80;99.90;;;;;;6152111;23;20088;-88
2022/01/27 03:37:04;;;;;;;38.75;12.55;;;2.80;99.90;;;;;;6138625;23;20005;-90
2022/01/27 03:39:30;;;;;;;51.20;21.25;;;2.80;99.90;;;;;;6127593;23;20446;-89
2022/01/27 03:42:14;;;;;;;40.40;15.18;;;2.90;99.90;;;;;;6115205;23;20013;-89
2022/01/27 03:44:40;;;;;;;23.02;8.90;;;2.80;99.90;;;;;;6144781;23;20012;-89
2022/01/27 03:47:05;;;;;;;32.47;13.70;;;2.90;99.90;;;;;;6150811;23;20020;-88
2022/01/27 03:49:31;;;;;;;33.30;13.63;;;2.90;99.90;;;;;;6154025;23;20375;-88
2022/01/27 03:52:00;;;;;;;34.33;15.40;;;2.90;99.90;;;;;;6150263;23;20076;-90
2022/01/27 03:54:26;;;;;;;31.13;12.98;;;2.80;99.90;;;;;;6128643;23;20009;-89
2022/01/27 03:57:51;;;;;;;38.50;16.00;;;2.90;99.90;;;;;;6122871;23;20036;-94
2022/01/27 04:00:21;;;;;;;20.80;9.48;;;2.90;99.90;;;;;;6178385;23;20001;-93
2022/01/27 04:06:06;;;;;;;35.22;12.93;;;2.90;99.90;;;;;;6145616;23;20105;-86
2022/01/27 04:08:32;;;;;;;16.95;6.40;;;3.00;99.90;;;;;;6146990;23;20299;-86
2022/01/27 04:11:00;;;;;;;36.53;16.17;;;3.00;99.90;;;;;;6096284;23;20021;-86
2022/01/27 04:13:26;;;;;;;37.40;15.48;;;3.00;99.90;;;;;;6144825;23;20014;-86
2022/01/27 04:15:51;;;;;;;38.88;15.35;;;2.90;99.90;;;;;;6143467;23;20267;-86
2022/01/27 04:18:17;;;;;;;29.67;9.93;;;3.00;99.90;;;;;;6143724;23;20010;-86
2022/01/27 04:20:42;;;;;;;15.05;7.32;;;3.00;99.90;;;;;;6144789;23;20029;-86
2022/01/27 04:23:08;;;;;;;37.60;16.58;;;3.00;99.90;;;;;;6143194;23;20045;-86
2022/01/27 04:25:34;;;;;;;44.17;17.98;;;3.00;99.90;;;;;;6144346;23;20018;-86
2022/01/27 04:28:05;;;;;;;31.35;13.23;;;3.00;99.90;;;;;;6145364;23;20014;-86
2022/01/27 04:30:31;;;;;;;39.83;15.90;;;3.00;99.90;;;;;;6145992;23;20056;-86
2022/01/27 04:33:07;;;;;;;28.15;10.75;;;2.90;99.90;;;;;;6144151;23;20583;-86
2022/01/27 04:35:37;;;;;;;21.83;9.32;;;3.00;99.90;;;;;;6142340;23;20459;-83
2022/01/27 04:49:02;;;;;;;31.45;14.05;;;3.00;99.90;;;;;;6145148;23;20020;-84
2022/01/27 04:51:24;;;;;;;45.83;17.83;;;3.00;99.90;;;;;;6141581;23;20052;-85
2022/01/27 04:54:05;;;;;;;39.65;15.77;;;3.10;99.90;;;;;;6144581;23;20473;-84
2022/01/27 04:56:33;;;;;;;43.40;18.20;;;3.10;99.90;;;;;;6148489;23;20014;-85
2022/01/27 04:59:04;;;;;;;32.90;12.50;;;3.10;99.90;;;;;;6144047;23;20020;-85
2022/01/27 05:01:44;;;;;;;28.88;10.48;;;3.10;99.90;;;;;;6145868;23;20017;-85
2022/01/27 05:04:13;;;;;;;27.42;12.00;;;3.10;99.90;;;;;;6144853;23;20006;-85
2022/01/27 05:06:39;;;;;;;21.45;6.88;;;3.10;99.90;;;;;;6097697;23;20137;-84
2022/01/27 05:09:05;;;;;;;36.33;15.18;;;3.10;99.90;;;;;;6097315;23;20448;-84
2022/01/27 05:11:35;;;;;;;35.03;14.82;;;3.10;99.90;;;;;;6072541;23;20016;-85
2022/01/27 05:14:13;;;;;;;34.25;13.32;;;3.10;99.90;;;;;;6101209;23;20089;-85
2022/01/27 05:16:39;;;;;;;17.63;8.80;;;3.10;99.90;;;;;;6103726;23;20017;-84
2022/01/27 05:19:05;;;;;;;36.60;12.93;;;3.10;99.90;;;;;;6098216;23;20109;-85
2022/01/27 05:21:33;;;;;;;26.52;9.90;;;3.10;99.90;;;;;;6099464;23;20014;-85
2022/01/27 05:24:02;;;;;;;39.13;13.57;;;3.10;99.90;;;;;;6099022;23;20141;-85
2022/01/27 05:26:27;;;;;;;32.38;12.95;;;3.10;99.90;;;;;;6099738;23;20018;-85
2022/01/27 05:28:53;;;;;;;47.47;23.00;;;3.10;99.90;;;;;;6068312;23;20014;-85
2022/01/27 05:31:18;;;;;;;39.33;16.17;;;3.20;99.90;;;;;;6096307;23;20016;-85
2022/01/27 05:33:44;;;;;;;26.92;11.15;;;3.20;99.90;;;;;;6098415;23;20473;-85
2022/01/27 05:36:10;;;;;;;28.13;9.82;;;3.20;99.90;;;;;;6091690;23;20001;-84
2022/01/27 05:38:37;;;;;;;26.23;11.20;;;3.20;99.90;;;;;;6097206;23;20017;-85
2022/01/27 05:41:03;;;;;;;32.15;12.40;;;3.20;99.90;;;;;;6095539;23;20017;-85
2022/01/27 05:43:29;;;;;;;40.25;15.57;;;3.20;99.90;;;;;;6095607;23;20452;-84
2022/01/27 05:45:54;;;;;;;34.40;14.63;;;3.20;99.90;;;;;;6070314;23;20028;-85
2022/01/27 05:48:20;;;;;;;42.85;19.33;;;3.20;99.90;;;;;;6094384;23;20366;-85
2022/01/27 05:50:45;;;;;;;38.75;16.20;;;3.20;99.90;;;;;;6071562;23;20071;-85
2022/01/27 05:53:11;;;;;;;33.50;12.93;;;3.20;99.90;;;;;;6097043;23;20422;-85
2022/01/27 05:55:53;;;;;;;31.30;12.68;;;3.20;99.90;;;;;;6095354;23;20104;-86
2022/01/27 05:58:25;;;;;;;36.63;14.45;;;3.20;99.90;;;;;;6080301;23;20021;-86
2022/01/27 06:00:51;;;;;;;35.42;14.45;;;3.20;99.90;;;;;;6085555;23;20488;-86
2022/01/27 06:03:16;;;;;;;34.05;13.88;;;3.20;99.90;;;;;;6077804;23;20025;-86
2022/01/27 06:05:42;;;;;;;41.53;15.48;;;3.20;99.90;;;;;;6122010;23;20028;-85
2022/01/27 06:08:10;;;;;;;34.78;16.00;;;3.20;99.90;;;;;;6113821;23;20080;-85
2022/01/27 06:10:36;;;;;;;39.92;17.48;;;3.20;99.90;;;;;;6127392;23;20017;-85
2022/01/27 06:13:10;;;;;;;33.28;13.55;;;3.30;99.90;;;;;;6110047;23;20025;-85
2022/01/27 06:16:08;;;;;;;22.55;9.77;;;3.20;99.90;;;;;;6129200;23;20524;-85
2022/01/27 06:18:34;;;;;;;37.78;18.05;;;3.30;99.90;;;;;;6066678;23;20025;-85
2022/01/27 06:21:03;;;;;;;38.33;16.50;;;3.30;99.90;;;;;;6089265;23;20438;-85
2022/01/27 06:23:29;;;;;;;31.67;13.45;;;3.30;99.90;;;;;;6122331;23;20164;-85
2022/01/27 06:26:06;;;;;;;27.48;12.98;;;3.40;99.90;;;;;;6102477;23;20056;-85
2022/01/27 06:28:33;;;;;;;16.48;7.80;;;3.30;99.90;;;;;;6121751;23;20451;-85
2022/01/27 06:30:59;;;;;;;28.95;11.95;;;3.40;99.90;;;;;;6120671;23;20025;-85
2022/01/27 06:33:24;;;;;;;22.95;9.70;;;3.40;99.90;;;;;;6120341;23;20014;-85
2022/01/27 06:35:50;;;;;;;29.67;9.75;;;3.40;99.90;;;;;;6121457;23;20104;-85
2022/01/27 06:38:21;;;;;;;25.13;11.15;;;3.40;99.90;;;;;;6121703;23;20457;-85
2022/01/27 06:40:47;;;;;;;28.45;10.90;;;3.50;99.90;;;;;;6091308;23;20009;-85
2022/01/27 06:43:14;;;;;;;37.75;14.05;;;3.40;99.90;;;;;;6115805;23;20013;-85
2022/01/27 06:45:41;;;;;;;31.67;11.98;;;3.50;99.90;;;;;;6106239;23;20041;-85
2022/01/27 06:48:07;;;;;;;24.73;11.55;;;3.50;99.90;;;;;;6088937;23;20447;-86
2022/01/27 06:50:34;;;;;;;43.42;16.02;;;3.50;99.90;;;;;;6120498;23;20029;-85
2022/01/27 06:53:00;;;;;;;24.33;8.05;;;3.40;99.90;;;;;;6119467;23;20500;-85
2022/01/27 06:55:26;;;;;;;38.85;15.00;;;3.50;99.90;;;;;;6118385;23;20014;-85
2022/01/27 06:57:54;;;;;;;36.38;18.05;;;3.50;99.90;;;;;;6117978;23;20021;-85
2022/01/27 07:00:20;;;;;;;30.63;12.98;;;3.50;99.90;;;;;;6118375;23;20454;-85
2022/01/27 07:02:45;;;;;;;32.45;13.10;;;3.50;99.90;;;;;;6112826;23;20017;-86
2022/01/27 07:05:14;;;;;;;28.58;12.07;;;3.60;99.90;;;;;;6119663;23;20018;-85
2022/01/27 07:07:40;;;;;;;40.05;14.60;;;3.70;99.90;;;;;;6122220;23;20010;-85
2022/01/27 07:10:06;;;;;;;32.17;12.90;;;3.70;99.90;;;;;;6081999;23;20064;-87
2022/01/27 07:12:32;;;;;;;20.33;7.82;;;3.70;99.90;;;;;;6111980;23;20429;-87
2022/01/27 07:15:00;;;;;;;35.15;12.35;;;3.70;99.90;;;;;;6104697;23;20017;-87
2022/01/27 07:17:28;;;;;;;25.92;10.93;;;3.80;99.90;;;;;;6097448;23;20009;-86
2022/01/27 07:19:54;;;;;;;28.05;12.00;;;3.80;99.90;;;;;;6119026;23;20438;-87
2022/01/27 07:22:19;;;;;;;22.92;11.95;;;3.80;99.90;;;;;;6120155;23;20012;-87
2022/01/27 07:24:45;;;;;;;35.65;13.40;;;3.80;99.90;;;;;;6102796;23;20009;-87
2022/01/27 07:27:14;;;;;;;35.17;11.40;;;3.90;99.90;;;;;;6101563;23;20353;-87
2022/01/27 07:29:39;;;;;;;30.88;13.27;;;3.80;99.90;;;;;;6122726;23;20403;-87
2022/01/27 07:32:05;;;;;;;30.25;13.23;;;3.90;99.90;;;;;;6121396;23;20020;-87
2022/01/27 07:34:31;;;;;;;22.63;9.90;;;4.00;99.90;;;;;;6124938;23;20505;-87
2022/01/27 07:37:00;;;;;;;24.48;12.25;;;4.00;99.90;;;;;;6120258;23;20097;-87
2022/01/27 07:39:25;;;;;;;30.60;13.45;;;4.00;99.90;;;;;;6120088;23;20075;-87
2022/01/27 07:41:52;;;;;;;29.65;14.60;;;4.00;99.90;;;;;;6117711;23;20088;-87
2022/01/27 07:44:17;;;;;;;31.58;11.38;;;4.00;99.90;;;;;;6121319;23;20010;-87
2022/01/27 07:46:44;;;;;;;32.03;16.17;;;4.00;99.90;;;;;;6109893;23;20024;-88
2022/01/27 07:49:18;;;;;;;29.15;12.88;;;4.10;99.90;;;;;;6073979;23;20092;-87
2022/01/27 07:51:44;;;;;;;14.50;7.07;;;4.00;99.90;;;;;;6095901;23;20079;-87
2022/01/27 07:54:10;;;;;;;27.58;12.73;;;4.00;99.90;;;;;;6110811;23;20017;-87
2022/01/27 07:56:38;;;;;;;34.35;13.75;;;4.10;99.90;;;;;;6098553;23;20100;-87
2022/01/27 07:59:04;;;;;;;26.33;12.02;;;4.00;99.90;;;;;;6119777;23;20076;-87
2022/01/27 08:01:29;;;;;;;38.92;17.92;;;4.10;99.90;;;;;;6116942;23;20442;-87
2022/01/27 08:03:57;;;;;;;28.77;10.40;;;4.20;99.90;;;;;;6120689;23;20022;-87
2022/01/27 08:06:22;;;;;;;31.25;11.68;;;4.10;99.90;;;;;;6121560;23;20053;-87
2022/01/27 08:08:49;;;;;;;24.02;9.45;;;4.10;99.90;;;;;;6119379;23;20016;-87
2022/01/27 08:11:15;;;;;;;28.25;12.07;;;4.20;99.90;;;;;;6119609;23;20024;-87
2022/01/27 08:13:41;;;;;;;25.27;9.23;;;4.20;99.90;;;;;;6120838;23;20013;-87
2022/01/27 08:16:06;;;;;;;22.75;11.20;;;4.20;99.90;;;;;;6119393;23;20443;-88
2022/01/27 08:18:32;;;;;;;28.63;12.65;;;4.10;99.90;;;;;;6111936;23;20029;-87
2022/01/27 08:20:57;;;;;;;37.08;13.40;;;4.20;99.90;;;;;;6120606;23;20036;-87
2022/01/27 08:23:24;;;;;;;23.27;10.15;;;4.20;99.90;;;;;;6116299;23;20020;-87
2022/01/27 08:26:25;;;;;;;17.88;7.45;;;4.20;99.90;;;;;;6119552;23;20009;-87
2022/01/27 08:28:54;;;;;;;30.92;11.95;;;4.20;99.90;;;;;;6115926;23;20141;-87
2022/01/27 08:31:32;;;;;;;37.45;17.45;;;4.20;99.90;;;;;;6110997;23;20107;-87
2022/01/27 08:34:17;;;;;;;34.58;13.50;;;4.30;99.90;;;;;;6084537;23;20021;-88
2022/01/27 08:36:43;;;;;;;35.65;16.02;;;4.10;99.90;;;;;;6118616;23;20497;-87
2022/01/27 08:39:11;;;;;;;32.30;12.20;;;4.20;99.90;;;;;;6073592;23;20103;-87
2022/01/27 08:41:37;;;;;;;32.65;12.90;;;4.30;99.90;;;;;;6090641;23;20083;-87
2022/01/27 08:44:50;;;;;;;;;;;;;;;;;;;;;
2022/01/27 08:47:26;;;;;;;31.45;13.40;;;4.20;99.90;;;;;;6124555;23;20435;-87
2022/01/27 08:49:56;;;;;;;24.48;9.05;;;4.30;99.90;;;;;;6107289;23;20068;-88
2022/01/27 08:52:27;;;;;;;32.58;11.75;;;4.30;99.90;;;;;;6084756;23;20493;-87
2022/01/27 08:54:55;;;;;;;32.30;15.68;;;4.30;99.90;;;;;;6077241;23;20061;-88
2022/01/27 08:57:24;;;;;;;28.00;12.13;;;4.30;99.90;;;;;;6074821;23;20101;-88
2022/01/27 09:00:01;;;;;;;31.38;12.93;;;4.40;99.90;;;;;;6043535;23;20088;-87
2022/01/27 09:05:24;;;;;;;41.10;19.90;;;4.40;99.90;;;;;;6112803;23;20132;-88
2022/01/27 09:08:18;;;;;;;32.17;13.23;;;4.40;99.90;;;;;;6121527;23;20010;-87
2022/01/27 09:10:48;;;;;;;41.88;17.85;;;4.40;99.90;;;;;;6107121;23;20005;-88
2022/01/27 09:13:15;;;;;;;35.08;17.25;;;4.40;99.90;;;;;;6090416;23;20021;-88
2022/01/27 09:16:02;;;;;;;;;;;;;;;;;;;;;
2022/01/27 09:18:32;;;;;;;32.65;15.55;;;4.50;99.90;;;;;;6129566;23;21486;-88
2022/01/27 09:21:05;;;;;;;24.85;11.13;;;4.50;99.90;;;;;;6070594;23;20017;-87
2022/01/27 09:23:33;;;;;;;36.28;18.38;;;4.50;99.90;;;;;;6077801;23;20025;-89
2022/01/27 09:26:37;;;;;;;34.33;14.40;;;4.60;99.90;;;;;;6113969;23;20006;-87
2022/01/27 09:29:05;;;;;;;33.10;16.20;;;4.50;99.90;;;;;;6117002;23;20131;-89
2022/01/27 09:31:31;;;;;;;27.63;11.98;;;4.50;99.90;;;;;;6088867;23;20026;-89
2022/01/27 09:33:58;;;;;;;31.95;14.60;;;4.50;99.90;;;;;;6099470;23;20091;-88
2022/01/27 09:36:26;;;;;;;32.35;15.82;;;4.50;99.90;;;;;;6088530;23;20033;-90
2022/01/27 09:38:52;;;;;;;29.63;14.82;;;4.50;99.90;;;;;;6109098;23;20361;-88
2022/01/27 09:41:21;;;;;;;31.92;11.93;;;4.60;99.90;;;;;;6127646;23;20012;-88
2022/01/27 09:43:48;;;;;;;32.15;14.07;;;4.60;99.90;;;;;;6124525;23;20014;-87
2022/01/27 09:46:17;;;;;;;27.10;13.75;;;4.60;99.90;;;;;;6125549;23;20019;-88
2022/01/27 09:48:52;;;;;;;41.08;18.05;;;4.60;99.90;;;;;;6126816;23;20036;-88
2022/01/27 09:54:50;;;;;;;26.67;12.30;;;4.60;99.90;;;;;;6153420;23;20020;-87
2022/01/27 10:00:15;;;;;;;25.90;10.38;;;4.70;99.90;;;;;;6092805;23;20018;-88
2022/01/27 10:03:13;;;;;;;27.00;13.57;;;4.70;99.90;;;;;;6052415;23;20029;-88
2022/01/27 10:05:41;;;;;;;28.73;11.63;;;4.70;99.90;;;;;;6089234;23;20021;-88
2022/01/27 10:08:21;;;;;;;29.50;15.68;;;4.80;99.90;;;;;;6096524;23;20016;-88
2022/01/27 10:11:15;;;;;;;26.00;9.93;;;4.80;99.90;;;;;;6085337;23;20016;-88
2022/01/27 10:14:34;;;;;;;26.08;13.25;;;4.80;99.90;;;;;;5998400;23;20006;-88
2022/01/27 10:17:02;;;;;;;33.90;15.25;;;4.80;99.90;;;;;;6112665;23;20017;-88
2022/01/27 10:22:54;;;;;;;17.58;8.07;;;4.90;99.90;;;;;;6075799;23;20019;-88
2022/01/27 10:25:50;;;;;;;21.83;9.50;;;4.90;99.90;;;;;;6032096;23;20093;-89
2022/01/27 10:29:00;;;;;;;17.00;10.35;;;4.90;99.90;;;;;;6050983;23;20032;-89
2022/01/27 10:31:26;;;;;;;14.43;7.60;;;4.90;99.90;;;;;;6136623;23;20055;-88
2022/01/27 10:35:04;;;;;;;25.60;14.25;;;4.90;99.90;;;;;;6086271;23;20442;-88
2022/01/27 10:37:53;;;;;;;22.35;10.15;;;5.00;99.90;;;;;;6032716;23;20014;-89
2022/01/27 10:44:55;;;;;;;25.70;13.63;;;5.00;99.90;;;;;;6019662;23;20081;-88
2022/01/27 10:48:33;;;;;;;;;;;;;;;;;;;;;
2022/01/27 10:51:08;;;;;;;;;;;5.00;99.90;;;;;;5977604;23;20338;-89
2022/01/27 10:54:20;;;;;;;29.33;17.23;;;5.10;99.90;;;;;;5997439;23;19909;-89
2022/01/27 10:57:20;;;;;;;26.00;13.95;;;5.10;99.90;;;;;;6072451;23;20005;-87
2022/01/27 11:00:23;;;;;;;26.13;12.13;;;5.10;99.90;;;;;;6079110;23;20442;-88
2022/01/27 11:03:21;;;;;;;25.25;12.65;;;5.20;99.90;;;;;;6114097;23;20024;-88
2022/01/27 11:06:10;;;;;;;28.83;11.63;;;5.20;99.90;;;;;;6102382;23;20160;-87
2022/01/27 11:12:45;;;;;;;18.55;11.02;;;5.20;99.90;;;;;;6083495;23;20310;-90
2022/01/27 11:15:31;;;;;;;25.55;10.05;;;5.20;99.90;;;;;;6129096;23;20069;-87
2022/01/27 11:18:09;;;;;;;22.40;11.60;;;5.20;99.90;;;;;;6079807;23;20010;-88
2022/01/27 11:28:09;;;;;;;25.00;12.68;;;5.30;99.90;;;;;;6099109;23;20055;-87
2022/01/27 11:34:55;;;;;;;;;;;;;;;;;;;;;
2022/01/27 11:41:15;;;;;;;21.67;10.73;;;5.20;99.90;;;;;;6116331;23;21395;-88
2022/01/27 11:44:33;;;;;;;;;;;;;;;;;;;;;
2022/01/27 11:54:01;;;;;;;25.75;13.75;;;5.40;99.90;;;;;;5986335;23;20017;-87
2022/01/27 11:57:11;;;;;;;;;;;;;;;;;;;;;
2022/01/27 11:59:52;;;;;;;21.60;10.82;;;5.40;99.90;;;;;;6164770;23;20921;-88
2022/01/27 12:02:26;;;;;;;24.95;13.45;;;5.40;99.90;;;;;;6108649;23;20104;-88
2022/01/27 12:04:53;;;;;;;13.55;6.90;;;5.50;99.90;;;;;;6099899;23;20017;-88
2022/01/27 12:07:18;;;;;;;21.42;13.18;;;5.50;99.90;;;;;;6063791;23;20059;-89
2022/01/27 12:09:54;;;;;;;18.20;10.32;;;5.50;99.90;;;;;;6091504;23;20346;-89
2022/01/27 12:12:47;;;;;;;20.05;11.40;;;5.50;99.90;;;;;;6116971;23;20084;-88
2022/01/27 12:15:14;;;;;;;18.02;9.18;;;5.50;99.90;;;;;;6131548;23;20013;-88
2022/01/27 12:17:42;;;;;;;24.25;11.82;;;5.60;99.90;;;;;;6105439;23;20028;-88
2022/01/27 12:20:16;;;;;;;29.45;16.98;;;5.50;99.90;;;;;;6123566;23;20024;-90
2022/01/27 12:22:52;;;;;;;23.60;12.20;;;5.60;99.90;;;;;;6102072;23;20585;-89
2022/01/27 12:28:45;;;;;;;21.20;12.77;;;5.60;99.90;;;;;;6030268;23;20006;-89
2022/01/27 12:31:13;;;;;;;17.92;8.43;;;5.60;99.90;;;;;;6048363;23;20030;-90
2022/01/27 12:33:45;;;;;;;22.30;11.82;;;5.70;99.90;;;;;;6097883;23;20037;-89
2022/01/27 12:36:14;;;;;;;16.45;11.00;;;5.60;99.90;;;;;;6102151;23;20166;-89
2022/01/27 12:38:39;;;;;;;18.27;10.60;;;5.60;99.90;;;;;;6126475;23;20016;-88
2022/01/27 12:41:05;;;;;;;21.83;12.23;;;5.60;99.90;;;;;;6122916;23;20006;-89
2022/01/27 12:43:31;;;;;;;24.27;10.40;;;5.70;99.90;;;;;;6122296;23;20017;-89
2022/01/27 12:45:59;;;;;;;16.77;9.73;;;5.70;99.90;;;;;;6127390;23;20020;-89
2022/01/27 12:48:26;;;;;;;30.30;17.27;;;5.80;99.90;;;;;;6129049;23;20069;-89
2022/01/27 12:50:57;;;;;;;26.60;13.63;;;5.70;99.90;;;;;;6124203;23;20024;-88
2022/01/27 12:53:23;;;;;;;22.83;13.25;;;5.70;99.90;;;;;;6124898;23;20100;-88
2022/01/27 12:55:49;;;;;;;19.25;10.52;;;5.80;99.90;;;;;;6127887;23;20009;-88
2022/01/27 12:58:18;;;;;;;28.88;14.82;;;5.80;99.90;;;;;;6130562;23;20339;-88
2022/01/27 13:00:47;;;;;;;24.65;14.02;;;5.80;99.90;;;;;;6128990;23;20006;-88
2022/01/27 13:03:13;;;;;;;27.65;17.45;;;5.80;99.90;;;;;;6128010;23;20324;-88
2022/01/27 13:05:45;;;;;;;26.90;15.25;;;5.80;99.90;;;;;;6127991;23;20073;-88
2022/01/27 13:08:16;;;;;;;33.38;17.77;;;5.80;99.90;;;;;;6127091;23;20072;-88
2022/01/27 13:10:56;;;;;;;24.55;14.55;;;5.80;99.90;;;;;;6126017;23;20016;-88
2022/01/27 13:13:33;;;;;;;24.75;12.43;;;5.80;99.90;;;;;;6101584;23;20018;-88
2022/01/27 13:16:06;;;;;;;25.20;12.75;;;5.80;99.90;;;;;;6124920;23;20006;-87
2022/01/27 13:21:04;;;;;;;25.80;12.98;;;5.90;99.90;;;;;;6152208;23;20013;-88
2022/01/27 13:23:36;;;;;;;26.75;16.95;;;5.90;99.90;;;;;;6128907;23;20024;-87
2022/01/27 13:26:08;;;;;;;20.08;11.20;;;5.90;99.90;;;;;;6110075;23;20021;-88
2022/01/27 13:28:39;;;;;;;22.05;13.15;;;5.90;99.90;;;;;;6120629;23;20024;-87
2022/01/27 13:31:09;;;;;;;27.10;17.38;;;5.90;99.90;;;;;;6125989;23;20465;-87
2022/01/27 13:33:43;;;;;;;21.17;11.70;;;5.90;99.90;;;;;;6125728;23;20009;-87
2022/01/27 13:36:21;;;;;;;32.17;10.18;;;5.90;99.90;;;;;;6127711;23;20019;-87
2022/01/27 13:39:11;;;;;;;25.33;13.52;;;5.90;99.90;;;;;;6135077;23;20021;-87
2022/01/27 13:41:52;;;;;;;25.15;13.75;;;6.00;99.90;;;;;;6144237;23;20065;-87
2022/01/27 13:44:23;;;;;;;18.98;9.85;;;5.90;99.90;;;;;;6080639;23;20031;-88
2022/01/27 13:46:55;;;;;;;21.10;13.75;;;6.00;99.90;;;;;;6101744;23;20065;-87
2022/01/27 13:49:56;;;;;;;27.65;17.38;;;6.00;99.90;;;;;;6068939;23;20012;-88
2022/01/27 13:52:36;;;;;;;23.05;14.68;;;6.00;99.90;;;;;;6115168;23;20088;-86
2022/01/27 13:55:19;;;;;;;24.00;14.60;;;6.00;99.90;;;;;;6076707;23;20026;-88
2022/01/27 13:58:25;;;;;;;22.73;14.02;;;6.00;99.90;;;;;;6112839;23;20026;-88
2022/01/27 14:02:00;;;;;;;;;;;;;;;;;;;;;
2022/01/27 14:05:04;;;;;;;22.50;12.90;;;6.10;99.90;;;;;;6142789;23;20040;-88
2022/01/27 14:08:05;;;;;;;23.60;14.60;;;6.00;99.90;;;;;;6035770;23;20012;-88
2022/01/27 14:14:44;;;;;;;15.93;9.98;;;6.20;99.90;;;;;;5900571;24;20175;-88
2022/01/27 14:20:54;;;;;;;22.10;12.27;;;6.20;99.90;;;;;;6029068;23;19916;-88
2022/01/27 14:24:46;;;;;;;;;;;;;;;;;;;;;
2022/01/27 14:51:09;;;;;;;33.08;18.17;;;6.40;99.90;;;;;;5835844;24;20048;-89
2022/01/27 15:00:52;;;;;;;35.13;18.53;;;6.40;99.90;;;;;;5738725;24;697717;-89
2022/01/27 15:30:25;;;;;;;42.83;23.10;;;6.60;99.90;;;;;;6185825;23;20036;-89
2022/01/27 15:32:54;;;;;;;45.13;22.77;;;6.60;99.90;;;;;;6108573;23;20033;-89
2022/01/27 15:35:25;;;;;;;44.67;23.98;;;6.60;99.90;;;;;;6117886;23;20028;-89
2022/01/27 15:37:51;;;;;;;52.88;30.05;;;6.70;99.90;;;;;;6078540;23;20486;-89
2022/01/27 15:40:29;;;;;;;35.65;20.33;;;6.80;99.90;;;;;;6080034;23;20023;-89
2022/01/27 15:42:58;;;;;;;39.53;24.20;;;6.70;99.90;;;;;;6112403;23;20012;-90
2022/01/27 15:45:40;;;;;;;38.30;18.13;;;6.70;99.90;;;;;;6079582;23;20001;-89
2022/01/27 15:48:06;;;;;;;52.92;26.50;;;6.60;99.90;;;;;;6100811;23;20009;-89
2022/01/27 15:50:33;;;;;;;63.45;29.85;;;6.70;99.90;;;;;;6132632;23;20084;-89
2022/01/27 15:52:59;;;;;;;54.00;26.48;;;6.80;99.90;;;;;;6094240;23;20048;-88
2022/01/27 15:55:31;;;;;;;47.45;25.80;;;6.80;99.90;;;;;;6107612;23;20016;-88
2022/01/27 15:58:06;;;;;;;47.13;22.83;;;6.80;99.90;;;;;;6132812;23;20009;-88
2022/01/27 16:00:33;;;;;;;38.72;21.15;;;6.70;99.90;;;;;;6091249;23;20059;-89
2022/01/27 16:03:04;;;;;;;58.15;29.42;;;6.70;99.90;;;;;;6120628;23;20079;-88